createdAt,value
2024-05-09T00:00:47.956Z,101445.44
2024-05-09T00:03:36.178Z,101455.44
2024-05-09T00:06:05.513Z,101441.72
2024-05-09T00:08:33.731Z,101451.84
2024-05-09T00:11:02.419Z,101458.72
2024-05-09T00:13:30.552Z,101451.03
2024-05-09T00:16:00.070Z,101448.97
2024-05-09T00:18:28.329Z,101457.13
2024-05-09T00:20:56.829Z,101443.22
2024-05-09T00:23:25.153Z,101449.38
2024-05-09T00:25:53.647Z,101456.41
2024-05-09T00:28:21.825Z,101440.19
2024-05-09T00:30:50.197Z,101448.50
2024-05-09T00:33:18.606Z,101458.44
2024-05-09T00:35:47.777Z,101451.78
2024-05-09T00:38:15.881Z,101443.28
2024-05-09T00:40:44.372Z,101437.50
2024-05-09T00:43:14.362Z,101460.81
2024-05-09T00:45:44.376Z,101455.31
2024-05-09T00:48:17.740Z,101452.88
2024-05-09T00:50:50.407Z,101433.44
2024-05-09T00:53:19.473Z,101436.88
2024-05-09T00:55:48.710Z,101446.97
2024-05-09T00:58:19.030Z,101440.84
2024-05-09T01:00:47.728Z,101421.69
2024-05-09T01:03:16.124Z,101425.09
2024-05-09T01:05:45.148Z,101431.41
2024-05-09T01:08:13.974Z,101434.50
2024-05-09T01:10:45.074Z,101432.91
2024-05-09T01:13:15.135Z,101429.81
2024-05-09T01:15:44.105Z,101422.13
2024-05-09T01:18:13.566Z,101426.50
2024-05-09T01:20:44.768Z,101423.06
2024-05-09T01:23:16.046Z,101427.03
2024-05-09T01:25:46.979Z,101438.59
2024-05-09T01:28:16.549Z,101408.06
2024-05-09T01:30:45.192Z,101433.28
2024-05-09T01:33:13.865Z,101432.81
2024-05-09T01:35:43.253Z,101423.59
2024-05-09T01:38:14.017Z,101413.56
2024-05-09T01:40:44.552Z,101424.13
2024-05-09T01:43:12.715Z,101420.03
2024-05-09T01:45:41.930Z,101422.50
2024-05-09T01:48:11.006Z,101435.59
2024-05-09T01:50:42.639Z,101428.00
2024-05-09T01:53:13.416Z,101431.72
2024-05-09T01:55:42.462Z,101427.47
2024-05-09T01:58:10.810Z,101438.34
2024-05-09T02:00:42.560Z,101432.19
2024-05-09T02:03:16.092Z,101439.22
2024-05-09T02:05:47.925Z,101431.00
2024-05-09T02:08:20.663Z,101438.28
2024-05-09T02:10:50.503Z,101424.97
2024-05-09T02:13:19.006Z,101427.91
2024-05-09T02:15:47.572Z,101405.78
2024-05-09T02:18:15.810Z,101414.16
2024-05-09T02:20:44.553Z,101422.63
2024-05-09T02:23:13.907Z,101421.56
2024-05-09T02:25:43.031Z,101423.19
2024-05-09T02:28:11.194Z,101414.91
2024-05-09T02:30:41.754Z,101401.91
2024-05-09T02:33:13.106Z,101417.47
2024-05-09T02:35:44.225Z,101409.63
2024-05-09T02:38:13.611Z,101396.22
2024-05-09T02:40:41.947Z,101411.56
2024-05-09T02:43:13.235Z,101418.13
2024-05-09T02:45:41.699Z,101409.78
2024-05-09T02:48:13.411Z,101397.22
2024-05-09T02:50:44.732Z,101405.69
2024-05-09T02:53:14.764Z,101404.16
2024-05-09T02:55:43.373Z,101382.06
2024-05-09T02:58:12.500Z,101408.59
2024-05-09T03:00:42.479Z,101401.09
2024-05-09T03:03:14.430Z,101394.72
2024-05-09T03:05:45.186Z,101398.09
2024-05-09T03:08:14.281Z,101374.22
2024-05-09T03:10:42.978Z,101405.47
2024-05-09T03:13:15.045Z,101387.97
2024-05-09T03:15:45.251Z,101403.09
2024-05-09T03:18:14.166Z,101407.16
2024-05-09T03:20:44.567Z,101401.16
2024-05-09T03:23:13.737Z,101403.84
2024-05-09T03:25:41.857Z,101397.91
2024-05-09T03:28:10.436Z,101400.38
2024-05-09T03:30:42.086Z,101405.13
2024-05-09T03:33:14.144Z,101403.25
2024-05-09T03:35:44.447Z,101406.16
2024-05-09T03:38:13.095Z,101400.00
2024-05-09T03:40:49.503Z,101403.47
2024-05-09T03:43:19.788Z,101403.25
2024-05-09T03:45:50.770Z,101395.19
2024-05-09T03:48:19.519Z,101405.56
2024-05-09T03:50:47.988Z,101383.03
2024-05-09T03:53:17.127Z,101396.19
2024-05-09T03:55:48.356Z,101382.13
2024-05-09T03:58:16.946Z,101405.31
2024-05-09T04:00:44.970Z,101383.50
2024-05-09T04:03:13.865Z,101403.41
2024-05-09T04:05:44.647Z,101398.16
2024-05-09T04:08:15.787Z,101408.88
2024-05-09T04:10:44.393Z,101400.56
2024-05-09T04:13:12.935Z,101382.44
2024-05-09T04:15:41.143Z,101402.44
2024-05-09T04:18:09.803Z,101385.78
2024-05-09T04:20:40.465Z,101406.88
2024-05-09T04:23:13.960Z,101411.09
2024-05-09T04:25:45.154Z,101415.75
2024-05-09T04:28:14.661Z,101403.25
2024-05-09T04:30:43.356Z,101404.25
2024-05-09T04:33:13.986Z,101406.06
2024-05-09T04:35:44.137Z,101404.19
2024-05-09T04:38:16.241Z,101408.81
2024-05-09T04:40:44.947Z,101415.88
2024-05-09T04:43:19.215Z,101395.97
2024-05-09T04:45:47.717Z,101409.59
2024-05-09T04:48:17.017Z,101403.28
2024-05-09T04:50:45.393Z,101400.47
2024-05-09T04:53:17.510Z,101396.38
2024-05-09T04:55:46.163Z,101384.84
2024-05-09T04:58:14.679Z,101374.75
2024-05-09T05:00:43.964Z,101383.41
2024-05-09T05:03:15.074Z,101391.44
2024-05-09T05:05:46.170Z,101396.81
2024-05-09T05:08:16.017Z,101402.19
2024-05-09T05:10:45.344Z,101386.81
2024-05-09T05:13:21.064Z,101404.81
2024-05-09T05:15:53.530Z,101392.34
2024-05-09T05:18:23.084Z,101406.72
2024-05-09T05:20:51.777Z,101405.31
2024-05-09T05:23:22.180Z,101409.13
2024-05-09T05:25:53.056Z,101408.22
2024-05-09T05:28:22.301Z,101402.97
2024-05-09T05:30:50.781Z,101402.06
2024-05-09T05:33:19.980Z,101401.09
2024-05-09T05:35:48.765Z,63521.91
2024-05-09T05:38:17.309Z,63521.91
2024-05-09T05:40:45.507Z,63521.91
2024-05-09T05:43:18.290Z,63521.91
2024-05-09T05:45:46.906Z,63521.91
2024-05-09T05:48:18.925Z,101402.50
2024-05-09T05:50:47.386Z,101391.94
2024-05-09T05:53:15.945Z,101388.25
2024-05-09T05:55:44.121Z,101376.03
2024-05-09T05:58:14.695Z,101388.59
2024-05-09T06:00:43.348Z,101390.72
2024-05-09T06:03:15.016Z,101377.25
2024-05-09T06:05:48.908Z,101394.78
2024-05-09T06:08:17.630Z,101388.34
2024-05-09T06:10:46.200Z,101384.59
2024-05-09T06:13:15.890Z,101389.41
2024-05-09T06:15:44.223Z,101379.22
2024-05-09T06:18:13.110Z,101392.38
2024-05-09T06:20:43.805Z,101389.88
2024-05-09T06:23:13.281Z,101389.75
2024-05-09T06:25:42.724Z,101394.41
2024-05-09T06:28:11.716Z,101408.03
2024-05-09T06:30:42.552Z,101393.31
2024-05-09T06:33:13.428Z,63521.91
2024-05-09T06:35:45.045Z,101393.31
2024-05-09T06:38:13.596Z,101388.59
2024-05-09T06:40:43.998Z,101386.19
2024-05-09T06:43:15.071Z,101393.56
2024-05-09T06:45:46.202Z,63521.91
2024-05-09T06:48:14.881Z,63521.91
2024-05-09T06:50:43.475Z,63521.91
2024-05-09T06:53:15.959Z,101393.56
2024-05-09T06:55:44.674Z,101373.38
2024-05-09T06:58:12.915Z,101374.47
2024-05-09T07:00:42.328Z,101376.56
2024-05-09T07:03:12.788Z,101373.28
2024-05-09T07:05:43.040Z,101362.59
2024-05-09T07:08:11.395Z,101373.66
2024-05-09T07:10:40.081Z,101374.34
2024-05-09T07:13:12.305Z,101368.84
2024-05-09T07:15:41.981Z,101359.56
2024-05-09T07:18:18.351Z,101371.69
2024-05-09T07:20:49.547Z,101362.66
2024-05-09T07:23:19.219Z,101356.56
2024-05-09T07:25:47.937Z,101362.84
2024-05-09T07:28:21.480Z,101346.19
2024-05-09T07:30:50.055Z,101354.41
2024-05-09T07:33:23.362Z,101355.13
2024-05-09T07:35:53.526Z,101361.38
2024-05-09T07:38:21.868Z,101353.84
2024-05-09T07:40:50.812Z,101354.88
2024-05-09T07:43:18.908Z,101356.03
2024-05-09T07:45:52.885Z,101346.41
2024-05-09T07:52:39.243Z,101341.19
2024-05-09T07:53:49.062Z,101338.38
2024-05-09T07:56:23.186Z,101329.56
2024-05-09T07:58:56.442Z,63521.91
2024-05-09T08:01:26.885Z,63521.91
2024-05-09T08:03:56.162Z,63521.91
2024-05-09T08:06:25.742Z,63521.91
2024-05-09T08:08:54.362Z,63521.91
2024-05-09T08:11:24.052Z,63521.91
2024-05-09T08:13:52.366Z,63521.91
2024-05-09T08:16:20.938Z,47230.72
2024-05-09T08:18:49.918Z,101320.25
2024-05-09T08:21:19.492Z,101327.78
2024-05-09T08:23:47.535Z,101327.78
2024-05-09T08:26:15.956Z,63521.91
2024-05-09T08:28:44.099Z,101312.22
2024-05-09T08:31:12.694Z,63521.91
2024-05-09T08:33:54.743Z,50362.06
2024-05-09T08:36:23.332Z,101312.22
2024-05-09T08:38:51.397Z,63521.91
2024-05-09T08:41:19.956Z,63521.91
2024-05-09T08:43:48.141Z,63521.91
2024-05-09T08:46:19.093Z,63521.91
2024-05-09T08:48:50.392Z,63521.91
2024-05-09T08:51:18.993Z,101329.38
2024-05-09T08:53:46.989Z,101314.09
2024-05-09T08:56:16.969Z,101332.84
2024-05-09T08:58:46.102Z,101323.16
2024-05-09T09:01:15.199Z,63521.91
2024-05-09T09:03:45.583Z,101323.16
2024-05-09T09:06:16.885Z,101319.53
2024-05-09T09:08:46.982Z,101322.50
2024-05-09T09:11:15.580Z,101321.13
2024-05-09T09:13:43.643Z,101324.38
2024-05-09T09:16:13.039Z,101317.97
2024-05-09T09:18:46.535Z,101298.72
2024-05-09T09:21:15.261Z,101307.34
2024-05-09T09:23:44.193Z,101305.47
2024-05-09T09:26:16.885Z,101318.72
2024-05-09T09:28:45.392Z,101304.25
2024-05-09T09:31:19.063Z,101303.81
2024-05-09T09:33:47.989Z,101306.31
2024-05-09T09:36:18.648Z,101300.81
2024-05-09T09:38:48.587Z,101295.09
2024-05-09T09:41:20.102Z,101290.88
2024-05-09T09:43:48.446Z,101305.13
2024-05-09T09:46:18.177Z,101300.97
2024-05-09T09:48:47.799Z,101286.44
2024-05-09T09:51:16.999Z,101291.47
2024-05-09T09:53:46.464Z,101281.13
2024-05-09T09:56:18.222Z,63521.91
2024-05-09T09:58:47.416Z,101290.97
2024-05-09T10:01:16.047Z,101290.13
2024-05-09T10:03:45.777Z,101280.50
2024-05-09T10:06:16.204Z,101284.00
2024-05-09T10:08:47.419Z,101288.72
2024-05-09T10:11:21.335Z,101275.72
2024-05-09T10:13:53.972Z,101275.81
2024-05-09T10:16:23.278Z,101263.13
2024-05-09T10:18:51.558Z,101270.13
2024-05-09T10:21:20.839Z,101258.94
2024-05-09T10:23:59.069Z,63521.91
2024-05-09T10:26:38.023Z,63521.91
2024-05-09T10:29:19.762Z,63521.91
2024-05-09T10:31:48.732Z,63521.91
2024-05-09T10:34:21.279Z,63521.91
2024-05-09T10:36:56.395Z,101250.31
2024-05-09T10:39:26.513Z,101253.59
2024-05-09T10:41:55.095Z,101255.72
2024-05-09T10:44:23.118Z,101234.06
2024-05-09T10:46:54.734Z,101246.41
2024-05-09T10:49:23.424Z,63521.91
2024-05-09T10:51:53.308Z,63521.91
2024-05-09T10:54:21.557Z,101246.41
2024-05-09T10:56:57.884Z,101241.41
2024-05-09T10:59:26.298Z,101237.50
2024-05-09T11:01:54.959Z,101232.03
2024-05-09T11:04:23.215Z,101224.47
2024-05-09T11:06:51.849Z,101226.28
2024-05-09T11:09:20.471Z,101220.88
2024-05-09T11:11:48.985Z,101222.09
2024-05-09T11:14:17.623Z,101210.09
2024-05-09T11:16:46.118Z,101201.53
2024-05-09T11:19:14.913Z,101203.53
2024-05-09T11:21:43.676Z,101203.53
2024-05-09T11:24:12.389Z,92214.47
2024-05-09T11:26:40.872Z,101203.53
2024-05-09T11:29:08.997Z,101183.28
2024-05-09T11:31:50.018Z,75864.63
2024-05-09T11:34:18.238Z,34621.84
2024-05-09T11:36:46.888Z,63521.91
2024-05-09T11:39:15.102Z,63521.91
2024-05-09T11:41:43.544Z,84731.94
2024-05-09T11:44:11.715Z,63521.91
2024-05-09T11:46:40.264Z,63521.91
2024-05-09T11:49:10.225Z,63521.91
2024-05-09T11:51:38.960Z,101171.13
2024-05-09T11:54:06.984Z,63521.91
2024-05-09T11:56:35.720Z,84696.75
2024-05-09T11:59:04.291Z,101171.13
2024-05-09T12:01:33.027Z,73094.91
2024-05-09T12:04:02.446Z,101173.66
2024-05-09T12:06:31.310Z,63521.91
2024-05-09T12:08:59.433Z,63521.91
2024-05-09T12:11:28.013Z,63521.91
2024-05-09T12:13:56.106Z,63521.91
2024-05-09T12:16:25.154Z,63521.91
2024-05-09T12:18:53.432Z,63521.91
2024-05-09T12:21:21.976Z,63521.91
2024-05-09T12:23:50.021Z,63521.91
2024-05-09T12:26:18.470Z,63521.91
2024-05-09T12:28:46.633Z,63521.91
2024-05-09T12:31:15.141Z,63521.91
2024-05-09T12:33:43.273Z,63521.91
2024-05-09T12:36:11.808Z,63521.91
2024-05-09T12:38:41.230Z,63521.91
2024-05-09T12:41:10.646Z,63521.91
2024-05-09T12:43:38.779Z,63521.91
2024-05-09T12:46:07.382Z,63521.91
2024-05-09T12:48:35.627Z,63521.91
2024-05-09T12:51:04.475Z,63521.91
2024-05-09T12:53:32.705Z,63521.91
2024-05-09T12:56:03.110Z,63521.91
2024-05-09T12:58:32.706Z,63521.91
2024-05-09T13:01:01.403Z,63521.91
2024-05-09T13:03:29.752Z,63521.91
2024-05-09T13:05:58.857Z,63521.91
2024-05-09T13:08:27.346Z,63521.91
2024-05-09T13:10:55.913Z,63521.91
2024-05-09T13:13:24.150Z,63521.91
2024-05-09T13:15:52.909Z,63521.91
2024-05-09T13:18:21.243Z,63521.91
2024-05-09T13:20:49.683Z,63521.91
2024-05-09T13:23:17.781Z,63521.91
2024-05-09T13:25:46.486Z,63521.91
2024-05-09T13:28:14.710Z,63521.91
2024-05-09T13:30:43.214Z,63521.91
2024-05-09T13:33:12.971Z,63521.91
2024-05-09T13:35:49.416Z,63521.91
2024-05-09T13:38:21.117Z,63521.91
2024-05-09T13:40:50.800Z,63521.91
2024-05-09T13:43:19.398Z,63521.91
2024-05-09T13:45:47.825Z,63521.91
2024-05-09T13:48:16.656Z,63521.91
2024-05-09T13:50:44.839Z,63521.91
2024-05-09T13:53:13.531Z,63521.91
2024-05-09T13:55:41.579Z,63521.91
2024-05-09T13:58:10.346Z,63521.91
2024-05-09T14:00:46.279Z,63521.91
2024-05-09T14:03:20.270Z,63521.91
2024-05-09T14:05:51.229Z,63521.91
2024-05-09T14:08:22.574Z,63521.91
2024-05-09T14:10:51.397Z,63521.91
2024-05-09T14:13:20.693Z,63521.91
2024-05-09T14:15:49.375Z,63521.91
2024-05-09T14:18:18.519Z,63521.91
2024-05-09T14:20:46.671Z,63521.91
2024-05-09T14:23:15.651Z,63521.91
2024-05-09T14:25:45.032Z,63521.91
2024-05-09T14:28:14.625Z,63521.91
2024-05-09T14:30:43.097Z,63521.91
2024-05-09T14:33:12.471Z,63521.91
2024-05-09T14:35:40.560Z,63521.91
2024-05-09T14:38:10.157Z,63521.91
2024-05-09T14:40:42.714Z,63521.91
2024-05-09T14:43:14.634Z,63521.91
2024-05-09T14:45:44.168Z,63521.91
2024-05-09T14:48:15.162Z,63521.91
2024-05-09T14:50:43.983Z,63521.91
2024-05-09T14:53:13.879Z,63521.91
2024-05-09T14:55:43.556Z,63521.91
2024-05-09T14:58:13.594Z,63521.91
2024-05-09T15:00:46.918Z,63521.91
2024-05-09T15:03:20.443Z,63521.91
2024-05-09T15:05:49.549Z,63521.91
2024-05-09T15:08:19.835Z,63521.91
2024-05-09T15:10:50.418Z,63521.91
2024-05-09T15:13:20.210Z,63521.91
2024-05-09T15:15:48.842Z,63521.91
2024-05-09T15:18:18.570Z,63521.91
2024-05-09T15:20:47.125Z,63521.91
2024-05-09T15:23:15.750Z,63521.91
2024-05-09T15:25:44.970Z,63521.91
2024-05-09T15:28:13.843Z,63521.91
2024-05-09T15:30:46.118Z,63521.91
2024-05-09T15:33:16.036Z,63521.91
2024-05-09T15:35:46.488Z,63521.91
2024-05-09T15:38:16.439Z,63521.91
2024-05-09T15:40:44.789Z,63521.91
2024-05-09T15:43:13.593Z,63521.91
2024-05-09T15:45:42.045Z,63521.91
2024-05-09T15:48:11.896Z,63521.91
2024-05-09T15:50:42.094Z,63521.91
2024-05-09T15:53:13.638Z,63521.91
2024-05-09T15:55:43.220Z,63521.91
2024-05-09T15:58:12.742Z,63521.91
2024-05-09T16:00:44.871Z,63521.91
2024-05-09T16:03:15.305Z,63521.91
2024-05-09T16:05:46.573Z,63521.91
2024-05-09T16:08:16.116Z,63521.91
2024-05-09T16:10:46.283Z,63521.91
2024-05-09T16:13:17.320Z,63521.91
2024-05-09T16:15:46.715Z,63521.91
2024-05-09T16:18:15.594Z,63521.91
2024-05-09T16:20:45.511Z,63521.91
2024-05-09T16:23:15.696Z,63521.91
2024-05-09T16:25:46.335Z,63521.91
2024-05-09T16:28:15.056Z,63521.91
2024-05-09T16:30:43.245Z,63521.91
2024-05-09T16:33:12.456Z,63521.91
2024-05-09T16:35:40.949Z,63521.91
2024-05-09T16:38:09.468Z,63521.91
2024-05-09T16:40:40.535Z,63521.91
2024-05-09T16:43:11.084Z,63521.91
2024-05-09T16:45:45.045Z,63521.91
2024-05-09T16:48:14.696Z,63521.91
2024-05-09T16:50:43.221Z,63521.91
2024-05-09T16:53:11.897Z,63521.91
2024-05-09T16:55:40.215Z,63521.91
2024-05-09T16:58:08.989Z,63521.91
2024-05-09T17:00:41.956Z,63521.91
2024-05-09T17:03:15.656Z,63521.91
2024-05-09T17:05:48.696Z,63521.91
2024-05-09T17:08:21.013Z,63521.91
2024-05-09T17:10:49.653Z,63521.91
2024-05-09T17:13:19.671Z,63521.91
2024-05-09T17:15:48.823Z,63521.91
2024-05-09T17:18:17.603Z,63521.91
2024-05-09T17:20:45.702Z,63521.91
2024-05-09T17:23:14.729Z,63521.91
2024-05-09T17:25:43.387Z,63521.91
2024-05-09T17:28:12.403Z,63521.91
2024-05-09T17:30:42.101Z,63521.91
2024-05-09T17:33:12.581Z,63521.91
2024-05-09T17:35:41.782Z,63521.91
2024-05-09T17:38:10.321Z,63521.91
2024-05-09T17:40:39.262Z,63521.91
2024-05-09T17:43:10.299Z,63521.91
2024-05-09T17:45:40.886Z,63521.91
2024-05-09T17:48:12.159Z,63521.91
2024-05-09T17:50:41.936Z,63521.91
2024-05-09T17:53:11.232Z,63521.91
2024-05-09T17:55:40.707Z,63521.91
2024-05-09T17:58:10.295Z,63521.91
2024-05-09T18:00:41.384Z,63521.91
2024-05-09T18:03:12.520Z,63521.91
2024-05-09T18:05:42.866Z,63521.91
2024-05-09T18:08:12.984Z,63521.91
2024-05-09T18:10:42.347Z,63521.91
2024-05-09T18:13:14.638Z,63521.91
2024-05-09T18:15:42.792Z,63521.91
2024-05-09T18:18:12.573Z,63521.91
2024-05-09T18:20:44.768Z,63521.91
2024-05-09T18:23:17.255Z,63521.91
2024-05-09T18:25:47.846Z,63521.91
2024-05-09T18:28:17.484Z,63521.91
2024-05-09T18:30:46.103Z,63521.91
2024-05-09T18:33:15.179Z,63521.91
2024-05-09T18:35:52.709Z,100954.72
2024-05-09T18:38:25.742Z,100942.34
2024-05-09T18:40:54.961Z,100957.59
2024-05-09T18:43:28.921Z,100947.66
2024-05-09T18:46:04.740Z,100961.97
2024-05-09T18:48:33.234Z,100955.88
2024-05-09T18:51:02.181Z,100942.63
2024-05-09T18:53:30.820Z,100952.19
2024-05-09T18:55:59.048Z,100946.22
2024-05-09T18:58:27.472Z,100953.69
2024-05-09T19:00:58.414Z,100952.66
2024-05-09T19:03:28.512Z,100955.97
2024-05-09T19:05:56.844Z,100943.56
2024-05-09T19:08:25.332Z,100951.34
2024-05-09T19:10:53.619Z,100942.75
2024-05-09T19:13:22.305Z,100946.25
2024-05-09T19:15:50.488Z,100945.84
2024-05-09T19:18:19.113Z,100943.44
2024-05-09T19:20:47.368Z,100940.06
2024-05-09T19:23:15.972Z,100939.78
2024-05-09T19:25:44.036Z,100947.91
2024-05-09T19:28:12.759Z,100939.50
2024-05-09T19:30:42.588Z,100953.06
2024-05-09T19:33:13.417Z,100945.56
2024-05-09T19:35:43.804Z,100952.50
2024-05-09T19:38:12.935Z,100943.94
2024-05-09T19:40:41.311Z,100949.81
2024-05-09T19:43:10.562Z,100935.22
2024-05-09T19:45:39.170Z,100950.69
2024-05-09T19:48:08.473Z,100953.09
2024-05-09T19:50:42.222Z,100953.91
2024-05-09T19:53:14.657Z,100936.75
2024-05-09T19:55:43.379Z,100936.63
2024-05-09T19:58:12.867Z,100946.72
2024-05-09T20:00:43.302Z,100940.16
2024-05-09T20:03:16.050Z,100936.34
2024-05-09T20:05:46.978Z,100927.38
2024-05-09T20:08:15.966Z,100933.53
2024-05-09T20:10:44.263Z,100918.06
2024-05-09T20:13:13.962Z,100929.13
2024-05-09T20:15:42.276Z,100932.53
2024-05-09T20:18:11.226Z,100928.25
2024-05-09T20:20:42.718Z,100923.16
2024-05-09T20:23:13.782Z,100926.84
2024-05-09T20:25:42.657Z,100922.28
2024-05-09T20:28:11.476Z,100921.44
2024-05-09T20:30:39.706Z,100903.53
2024-05-09T20:33:09.480Z,100919.16
2024-05-09T20:35:38.302Z,100896.19
2024-05-09T20:38:06.862Z,100912.66
2024-05-09T20:40:37.993Z,100899.88
2024-05-09T20:43:10.234Z,100909.50
2024-05-09T20:45:39.358Z,100912.50
2024-05-09T20:48:09.190Z,100893.78
2024-05-09T20:50:40.858Z,100887.66
2024-05-09T20:53:15.345Z,100896.31
2024-05-09T20:55:45.306Z,100894.47
2024-05-09T20:58:14.537Z,100899.69
2024-05-09T21:00:45.170Z,100894.91
2024-05-09T21:03:16.839Z,100901.28
2024-05-09T21:05:46.793Z,100896.31
2024-05-09T21:08:15.967Z,100894.34
2024-05-09T21:10:44.278Z,100891.06
2024-05-09T21:13:13.141Z,100885.69
2024-05-09T21:15:41.547Z,100891.22
2024-05-09T21:18:10.146Z,100883.69
2024-05-09T21:20:38.297Z,100887.94
2024-05-09T21:23:06.797Z,100878.88
2024-05-09T21:25:35.125Z,100859.69
2024-05-09T21:28:03.757Z,100863.25
2024-05-09T21:30:40.359Z,100878.53
2024-05-09T21:33:14.134Z,100858.13
2024-05-09T21:35:46.337Z,100869.47
2024-05-09T21:38:16.438Z,100874.72
2024-05-09T21:40:45.336Z,100855.44
2024-05-09T21:43:14.659Z,100870.78
2024-05-09T21:45:43.037Z,100855.84
2024-05-09T21:48:13.693Z,100862.69
2024-05-09T21:50:42.598Z,100847.06
2024-05-09T21:53:13.295Z,100860.81
2024-05-09T21:55:45.362Z,100862.09
2024-05-09T21:58:17.100Z,100854.47
2024-05-09T22:00:46.606Z,100846.50
2024-05-09T22:03:15.690Z,100838.69
2024-05-09T22:05:45.170Z,100850.06
2024-05-09T22:08:14.014Z,100843.94
2024-05-09T22:10:42.469Z,100851.34
2024-05-09T22:13:11.427Z,100854.03
2024-05-09T22:15:40.827Z,100830.44
2024-05-09T22:18:11.406Z,100840.94
2024-05-09T22:20:45.411Z,100837.81
2024-05-09T22:23:15.922Z,100843.94
2024-05-09T22:25:44.326Z,100837.53
2024-05-09T22:28:15.733Z,100838.78
2024-05-09T22:30:46.516Z,100820.38
2024-05-09T22:33:16.080Z,100826.59
2024-05-09T22:35:44.396Z,100832.84
2024-05-09T22:38:13.106Z,100824.91
2024-05-09T22:40:47.422Z,100827.16
2024-05-09T22:43:23.471Z,100824.75
2024-05-09T22:45:55.110Z,100830.28
2024-05-09T22:48:25.464Z,100828.59
2024-05-09T22:50:54.949Z,100833.72
2024-05-09T22:53:25.444Z,100812.38
2024-05-09T22:55:54.610Z,100817.75
2024-05-09T22:58:24.327Z,100804.53
2024-05-09T23:00:53.071Z,100806.41
2024-05-09T23:03:22.929Z,100823.81
2024-05-09T23:05:52.527Z,100809.66
2024-05-09T23:08:21.105Z,100783.09
2024-05-09T23:10:49.160Z,100806.31
2024-05-09T23:13:17.757Z,100782.28
2024-05-09T23:15:45.819Z,100801.72
2024-05-09T23:18:14.469Z,100797.25
2024-05-09T23:20:42.583Z,100782.41
2024-05-09T23:23:11.980Z,100779.69
2024-05-09T23:25:44.524Z,100778.88
2024-05-09T23:28:13.366Z,100777.38
2024-05-09T23:30:42.347Z,100756.41
2024-05-09T23:33:12.891Z,100762.94
2024-05-09T23:35:42.584Z,100748.25
2024-05-09T23:38:11.287Z,100760.13
2024-05-09T23:40:41.211Z,100764.13
2024-05-09T23:43:12.308Z,100753.00
2024-05-09T23:45:41.784Z,100755.00
2024-05-09T23:48:11.433Z,100748.31
2024-05-09T23:50:40.734Z,100764.78
2024-05-09T23:53:10.766Z,100747.75
2024-05-09T23:55:39.681Z,100755.13
2024-05-09T23:58:09.804Z,100744.28
